Ginga — JJ4054 — position and weather

sailwx.info

Track history (hours):
 
Tides and Currents Weather Stations Pressure Air Temp Water Temp Dewpoint Dewpoint Depression Visibility Wind Speed Wind Dir Waves Ship Positions

Ginga

Last reported at 2016-May-06 04:24 UTC. Time now 2016-May-06 05:30 UTC.
Position N 34°38' E 134°58'.

Length 28 m; draft 1.6 m.

Type: Other ship. MMSI: 431301704.

Date/timePositionNaut miles runAvg speedWind from/ knotsBaromVisibWave heightAir tempDewpointWater temp
2016-May-06 04:24N 34°38' E 134°58'4 5.2
2016-May-06 03:33N 34°36' E 135°03'5 4.8
2016-May-06 02:33N 34°36' E 135°09'1110.5
2016-May-06 01:33N 34°34' E 135°21'2 1.2
2016-May-06 00:03N 34°33' E 135°19'1 1.5
2016-May-05 23:32N 34°34' E 135°18'9 9.1
2016-May-05 22:33N 34°39' E 135°09'0 0.0
2016-May-05 06:33N 34°39' E 135°09'1110.2
2016-May-05 05:27N 34°36' E 134°56'3 0.5
2016-May-05 00:26N 34°38' E 134°58'6 6.4
2016-May-04 23:34N 34°36' E 135°05'5 5.2
2016-May-04 22:33N 34°39' E 135°09'3 0.1
2016-May-03 05:34N 34°37' E 135°07'4 3.9
2016-May-03 04:33N 34°37' E 135°02'4 4.1
2016-May-03 03:34N 34°36' E 135°07'4 0.6
2016-May-02 21:27N 34°37' E 135°03'2 2.6
2016-May-02 20:33N 34°38' E 135°00'8 7.7
2016-May-02 19:33N 34°38' E 135°10'  
2016-Apr-30 08:33N 34°39' E 135°11'2 1.8
2016-Apr-30 07:33N 34°41' E 135°11'2 0.3
2016-Apr-30 00:34N 34°39' E 135°10'3 2.7
2016-Apr-29 23:34N 34°36' E 135°10'3 0.2
2016-Apr-29 08:27N 34°39' E 135°09'1314.2
2016-Apr-29 07:33N 34°28' E 135°03'5 2.7
2016-Apr-29 05:33N 34°28' E 135°09'1211.7
2016-Apr-29 04:31N 34°33' E 135°22'1 1.5
2016-Apr-29 03:33N 34°34' E 135°24'1010.2
2016-Apr-29 02:33N 34°35' E 135°12'7 3.1
2016-Apr-29 00:11N 34°37' E 135°03'2 2.4
2016-Apr-28 23:28N 34°37' E 135°01'4 4.7
2016-Apr-28 22:33N 34°36' E 135°06'4 0.5
2016-Apr-28 14:27N 34°37' E 135°01'7 7.8
2016-Apr-28 13:33N 34°36' E 135°09'3 3.0
2016-Apr-28 12:33N 34°39' E 135°09'0 0.0
2016-Apr-28 00:09N 34°39' E 135°09'711.5
2016-Apr-27 23:33N 34°36' E 135°17'5 4.0
2016-Apr-27 22:25N 34°33' E 135°22'7 8.5
2016-Apr-27 21:33N 34°31' E 135°13'13 4.0
2016-Apr-27 18:12N 34°23' E 135°00'1016.0
2016-Apr-27 17:33N 34°32' E 135°06'8 0.7
2016-Apr-27 06:14N 34°39' E 135°09'7 9.8
2016-Apr-27 05:33N 34°36' E 135°02'2 1.7
2016-Apr-27 04:28N 34°38' E 135°02'1 0.3
2016-Apr-27 02:09N 34°37' E 135°03'2 2.4
2016-Apr-27 01:30N 34°37' E 135°01'7 7.7
2016-Apr-27 00:33N 34°39' E 135°10'0 0.0
2016-Apr-26 12:03N 34°39' E 135°09'510.6
2016-Apr-26 11:33N 34°35' E 135°06'9 7.9
2016-Apr-26 10:26N 34°36' E 134°55'1213.8
2016-Apr-26 09:33N 34°38' E 135°10'  
Track history (hours):
 
Tides and Currents Weather Stations Pressure Air Temp Water Temp Dewpoint Dewpoint Depression Visibility Wind Speed Wind Dir Waves Ship Positions

Ginga

Last reported at 2016-May-06 04:24 UTC. Time now 2016-May-06 05:30 UTC.
Position N 34°38' E 134°58'.

Length 28 m; draft 1.6 m.

Type: Other ship. MMSI: 431301704.

Date/timePositionNaut miles runAvg speedWind from/ knotsBaromVisibWave heightAir tempDewpointWater temp
2016-May-06 04:24N 34°38' E 134°58'4 5.2
2016-May-06 03:33N 34°36' E 135°03'5 4.8
2016-May-06 02:33N 34°36' E 135°09'1110.5
2016-May-06 01:33N 34°34' E 135°21'2 1.2
2016-May-06 00:03N 34°33' E 135°19'1 1.5
2016-May-05 23:32N 34°34' E 135°18'9 9.1
2016-May-05 22:33N 34°39' E 135°09'0 0.0
2016-May-05 06:33N 34°39' E 135°09'1110.2
2016-May-05 05:27N 34°36' E 134°56'3 0.5
2016-May-05 00:26N 34°38' E 134°58'6 6.4
2016-May-04 23:34N 34°36' E 135°05'5 5.2
2016-May-04 22:33N 34°39' E 135°09'3 0.1
2016-May-03 05:34N 34°37' E 135°07'4 3.9
2016-May-03 04:33N 34°37' E 135°02'4 4.1
2016-May-03 03:34N 34°36' E 135°07'4 0.6
2016-May-02 21:27N 34°37' E 135°03'2 2.6
2016-May-02 20:33N 34°38' E 135°00'8 7.7
2016-May-02 19:33N 34°38' E 135°10'  
2016-Apr-30 08:33N 34°39' E 135°11'2 1.8
2016-Apr-30 07:33N 34°41' E 135°11'2 0.3
2016-Apr-30 00:34N 34°39' E 135°10'3 2.7
2016-Apr-29 23:34N 34°36' E 135°10'3 0.2
2016-Apr-29 08:27N 34°39' E 135°09'1314.2
2016-Apr-29 07:33N 34°28' E 135°03'5 2.7
2016-Apr-29 05:33N 34°28' E 135°09'1211.7
2016-Apr-29 04:31N 34°33' E 135°22'1 1.5
2016-Apr-29 03:33N 34°34' E 135°24'1010.2
2016-Apr-29 02:33N 34°35' E 135°12'7 3.1
2016-Apr-29 00:11N 34°37' E 135°03'2 2.4
2016-Apr-28 23:28N 34°37' E 135°01'4 4.7
2016-Apr-28 22:33N 34°36' E 135°06'4 0.5
2016-Apr-28 14:27N 34°37' E 135°01'7 7.8
2016-Apr-28 13:33N 34°36' E 135°09'3 3.0
2016-Apr-28 12:33N 34°39' E 135°09'0 0.0
2016-Apr-28 00:09N 34°39' E 135°09'711.5
2016-Apr-27 23:33N 34°36' E 135°17'5 4.0
2016-Apr-27 22:25N 34°33' E 135°22'7 8.5
2016-Apr-27 21:33N 34°31' E 135°13'13 4.0
2016-Apr-27 18:12N 34°23' E 135°00'1016.0
2016-Apr-27 17:33N 34°32' E 135°06'8 0.7
2016-Apr-27 06:14N 34°39' E 135°09'7 9.8
2016-Apr-27 05:33N 34°36' E 135°02'2 1.7
2016-Apr-27 04:28N 34°38' E 135°02'1 0.3
2016-Apr-27 02:09N 34°37' E 135°03'2 2.4
2016-Apr-27 01:30N 34°37' E 135°01'7 7.7
2016-Apr-27 00:33N 34°39' E 135°10'0 0.0
2016-Apr-26 12:03N 34°39' E 135°09'510.6
2016-Apr-26 11:33N 34°35' E 135°06'9 7.9
2016-Apr-26 10:26N 34°36' E 134°55'1213.8
2016-Apr-26 09:33N 34°38' E 135°10'  

Dump ship's entire track history